Map

Track Data

SID SEASON NUMBER BASIN SUBBASIN NAME ISO_TIME NATURE LAT LON WMO_WIND WMO_PRES WMO_AGENCY TRACK_TYPE DIST2LAND LANDFALL IFLAG USA_AGENCY USA_ATCF_ID USA_LAT USA_LON USA_RECORD USA_STATUS USA_WIND USA_PRES USA_SSHS USA_R34_NE USA_R34_SE USA_R34_SW USA_R34_NW USA_R50_NE USA_R50_SE USA_R50_SW USA_R50_NW USA_R64_NE USA_R64_SE USA_R64_SW USA_R64_NW USA_POCI USA_ROCI USA_RMW USA_EYE TOKYO_LAT TOKYO_LON TOKYO_GRADE TOKYO_WIND TOKYO_PRES TOKYO_R50_DIR TOKYO_R50_LONG TOKYO_R50_SHORT TOKYO_R30_DIR TOKYO_R30_LONG TOKYO_R30_SHORT TOKYO_LAND CMA_LAT CMA_LON CMA_CAT CMA_WIND CMA_PRES HKO_LAT HKO_LON HKO_CAT HKO_WIND HKO_PRES NEWDELHI_LAT NEWDELHI_LON NEWDELHI_GRADE NEWDELHI_WIND NEWDELHI_PRES NEWDELHI_CI NEWDELHI_DP NEWDELHI_POCI REUNION_LAT REUNION_LON REUNION_TYPE REUNION_WIND REUNION_PRES REUNION_TNUM REUNION_CI REUNION_RMW REUNION_R34_NE REUNION_R34_SE REUNION_R34_SW REUNION_R34_NW REUNION_R50_NE REUNION_R50_SE REUNION_R50_SW REUNION_R50_NW REUNION_R64_NE REUNION_R64_SE REUNION_R64_SW REUNION_R64_NW BOM_LAT BOM_LON BOM_TYPE BOM_WIND BOM_PRES BOM_TNUM BOM_CI BOM_RMW BOM_R34_NE BOM_R34_SE BOM_R34_SW BOM_R34_NW BOM_R50_NE BOM_R50_SE BOM_R50_SW BOM_R50_NW BOM_R64_NE BOM_R64_SE BOM_R64_SW BOM_R64_NW BOM_ROCI BOM_POCI BOM_EYE BOM_POS_METHOD BOM_PRES_METHOD NADI_LAT NADI_LON NADI_CAT NADI_WIND NADI_PRES WELLINGTON_LAT WELLINGTON_LON WELLINGTON_WIND WELLINGTON_PRES DS824_LAT DS824_LON DS824_STAGE DS824_WIND DS824_PRES TD9636_LAT TD9636_LON TD9636_STAGE TD9636_WIND TD9636_PRES TD9635_LAT TD9635_LON TD9635_WIND TD9635_PRES TD9635_ROCI NEUMANN_LAT NEUMANN_LON NEUMANN_CLASS NEUMANN_WIND NEUMANN_PRES MLC_LAT MLC_LON MLC_CLASS MLC_WIND MLC_PRES USA_GUST BOM_GUST BOM_GUST_PER REUNION_GUST REUNION_GUST_PER USA_SEAHGT USA_SEARAD_NE USA_SEARAD_SE USA_SEARAD_SW USA_SEARAD_NW STORM_SPEED STORM_DIR
1903223N20126 1903 37 WP MM NOT_NAMED 1903-08-10 16:00:00 NR 20.2000 125.600 main 400 400 __________O___ -1 20.2000 125.600 7 0 0
1903223N20126 1903 37 WP MM NOT_NAMED 1903-08-10 18:00:00 NR 20.1954 125.602 main 400 400 __________P___ -1 20.1954 125.602 7 0 0
1903223N20126 1903 37 WP MM NOT_NAMED 1903-08-10 21:00:00 NR 20.2028 125.592 main 400 391 __________P___ -1 20.2028 125.592 7 1 310
1903223N20126 1903 37 WP MM NOT_NAMED 1903-08-11 00:00:00 NR 20.2467 125.548 main 391 388 __________P___ -1 20.2467 125.548 7 2 316
1903223N20126 1903 37 WP MM NOT_NAMED 1903-08-11 03:00:00 NR 20.3491 125.449 main 388 394 __________P___ -1 20.3491 125.449 7 3 318
1903223N20126 1903 37 WP MM NOT_NAMED 1903-08-11 04:00:00 NR 20.4000 125.400 main 394 392 __________O___ -1 20.4000 125.400 7 5 318
1903223N20126 1903 37 WP MM NOT_NAMED 1903-08-11 06:00:00 NR 20.5295 125.277 main 392 389 __________P___ -1 20.5295 125.277 7 6 319
1903223N20126 1903 37 WP MM NOT_NAMED 1903-08-11 09:00:00 NR 20.7803 125.041 main 389 389 __________P___ -1 20.7803 125.041 7 7 319
1903223N20126 1903 37 WP MM NOT_NAMED 1903-08-11 12:00:00 NR 21.0768 124.769 main 399 371 __________P___ -1 21.0768 124.769 7 8 320
1903223N20126 1903 37 WP MM NOT_NAMED 1903-08-11 15:00:00 NR 21.3940 124.490 main 371 356 __________P___ -1 21.3940 124.490 7 8 321
1903223N20126 1903 37 WP MM NOT_NAMED 1903-08-11 16:00:00 NR 21.5000 124.400 main 356 327 __________O___ -1 21.5000 124.400 7 8 321
1903223N20126 1903 37 WP MM NOT_NAMED 1903-08-11 18:00:00 NR 21.6917 124.231 main 327 293 __________P___ -1 21.6917 124.231 7 7 321
1903223N20126 1903 37 WP MM NOT_NAMED 1903-08-11 21:00:00 NR 21.9855 123.984 main 293 261 __________P___ -1 21.9855 123.984 7 7 324
1903223N20126 1903 37 WP MM NOT_NAMED 1903-08-12 00:00:00 NR 22.2867 123.755 main 261 232 __________P___ -1 22.2867 123.755 7 7 327
1903223N20126 1903 37 WP MM NOT_NAMED 1903-08-12 03:00:00 NR 22.5954 123.557 main 232 219 __________P___ -1 22.5954 123.557 7 7 331
1903223N20126 1903 37 WP MM NOT_NAMED 1903-08-12 04:00:00 NR 22.7000 123.500 main 219 205 __________O___ -1 22.7000 123.500 4 7 337
1903223N20126 1903 37 WP MM NOT_NAMED 1903-08-12 06:00:00 NR 22.9160 123.412 main 205 191 __________P___ -1 22.9160 123.412 4 7 342
1903223N20126 1903 37 WP MM NOT_NAMED 1903-08-12 09:00:00 NR 23.2466 123.312 main 191 165 __________P___ -1 23.2466 123.312 4 7 346
1903223N20126 1903 37 WP MM NOT_NAMED 1903-08-12 12:00:00 NR 23.5767 123.229 main 165 138 __________P___ -1 23.5767 123.229 4 7 346
1903223N20126 1903 37 WP MM NOT_NAMED 1903-08-12 15:00:00 NR 23.8971 123.137 main 138 133 __________P___ -1 23.8971 123.137 4 7 345
1903223N20126 1903 37 WP MM NOT_NAMED 1903-08-12 16:00:00 NR 24.0000 123.100 main 133 116 __________O___ -1 24.0000 123.100 4 6 336
1903223N20126 1903 37 WP MM NOT_NAMED 1903-08-12 18:00:00 NR 24.1895 123.000 main 116 91 __________P___ -1 24.1895 123.000 4 6 332
1903223N20126 1903 37 WP MM NOT_NAMED 1903-08-12 21:00:00 NR 24.4611 122.832 main 91 69 __________P___ -1 24.4611 122.832 4 6 329
1903223N20126 1903 37 WP MM NOT_NAMED 1903-08-13 00:00:00 NR 24.7284 122.649 main 69 50 __________P___ -1 24.7284 122.649 4 6 328
1903223N20126 1903 37 WP MM NOT_NAMED 1903-08-13 03:00:00 NR 25.0041 122.462 main 50 40 __________P___ -1 25.0041 122.462 4 7 329
1903223N20126 1903 37 WP MM NOT_NAMED 1903-08-13 04:00:00 NR 25.1000 122.400 main 41 37 __________O___ -1 25.1000 122.400 4 7 334
1903223N20126 1903 37 WP MM NOT_NAMED 1903-08-13 06:00:00 NR 25.3077 122.299 main 45 45 __________P___ -1 25.3077 122.299 4 7 337
1903223N20126 1903 37 WP MM NOT_NAMED 1903-08-13 09:00:00 NR 25.6319 122.147 main 67 75 __________P___ -1 25.6319 122.147 4 7 336
1903223N20126 1903 37 WP MM NOT_NAMED 1903-08-13 12:00:00 NR 25.9632 121.980 main 97 94 __________P___ -1 25.9632 121.980 4 7 333
1903223N20126 1903 37 WP MM NOT_NAMED 1903-08-13 15:00:00 NR 26.2924 121.778 main 124 123 __________P___ -1 26.2924 121.778 4 8 330
1903223N20126 1903 37 WP MM NOT_NAMED 1903-08-13 16:00:00 NR 26.4000 121.700 main 134 119 __________O___ -1 26.4000 121.700 4 8 324
1903223N20126 1903 37 WP MM NOT_NAMED 1903-08-13 18:00:00 NR 26.6106 121.525 main 119 76 __________P___ -1 26.6106 121.525 4 8 320
1903223N20126 1903 37 WP MM NOT_NAMED 1903-08-13 21:00:00 NR 26.9163 121.222 main 76 37 __________P___ -1 26.9163 121.222 4 8 316
1903223N20126 1903 37 WP MM NOT_NAMED 1903-08-14 00:00:00 NR 27.2129 120.883 main 37 0 __________P___ -1 27.2129 120.883 4 9 313
1903223N20126 1903 37 WP MM NOT_NAMED 1903-08-14 03:00:00 NR 27.5037 120.522 main 0 0 __________P___ -1 27.5037 120.522 4 9 312
1903223N20126 1903 37 WP MM NOT_NAMED 1903-08-14 04:00:00 NR 27.6000 120.400 main 0 __________O___ -1 27.6000 120.400 2 9 311

Digital Typhoon Data and Search

About IBTrACS Database

This database is a web-friendly format of International Best Track Archive for Climate Stewardship (IBTrACS), a global best track data archive curated by NOAA dating back to 1842.

Updated: 2021-11-26